Wetterdaten: Woche 01.02.16 - 07.02.16 (KW5)
Datum Zeit Temp. A. Feuchte A. Luftdruck Regen Wind Richtung Taupunkt Windchill Windben
01.02.2016 00:00 4,2 C 84 % 1013,0 hPa 1,0 l/m 0,1 km/h N 1,7 C 4,2 C 1,6 km/h
01.02.2016 01:00 4,2 C 84 % 1012,2 hPa 2,3 l/m 0,3 km/h N 1,7 C 4,2 C 2,8 km/h
01.02.2016 02:00 4,5 C 83 % 1012,0 hPa 3,1 l/m 0,9 km/h N 1,8 C 4,5 C 5,6 km/h
01.02.2016 03:00 4,8 C 83 % 1011,3 hPa 2,3 l/m 0,0 km/h N 2,1 C 4,8 C 0,4 km/h
01.02.2016 04:00 7,5 C 82 % 1010,9 hPa 0,5 l/m 6,2 km/h N 4,6 C 6,8 C 19,3 km/h
01.02.2016 05:00 9,3 C 82 % 1011,4 hPa 0,0 l/m 7,0 km/h N 6,3 C 8,5 C 19,7 km/h
01.02.2016 06:00 9,3 C 81 % 1012,6 hPa 0,3 l/m 1,5 km/h N 6,3 C 9,3 C 6,4 km/h
01.02.2016 07:00 9,8 C 83 % 1013,4 hPa 0,0 l/m 2,7 km/h N 7,0 C 9,8 C 11,7 km/h
01.02.2016 08:00 11,3 C 81 % 1014,2 hPa 0,5 l/m 9,2 km/h N 8,1 C 9,5 C 20,5 km/h
01.02.2016 09:00 11,4 C 82 % 1014,9 hPa 0,0 l/m 8,3 km/h N 8,5 C 10,2 C 20,9 km/h
01.02.2016 10:00 13,2 C 79 % 1015,3 hPa 0,3 l/m 13,1 km/h N 9,7 C 9,9 C 29,3 km/h
01.02.2016 11:00 14,4 C 75 % 1015,9 hPa 0,0 l/m 16,1 km/h N 10,0 C 10,2 C 31,0 km/h
01.02.2016 12:00 15,1 C 73 % 1015,9 hPa 0,0 l/m 20,1 km/h N 10,3 C 9,8 C 42,7 km/h
01.02.2016 13:00 14,7 C 75 % 1016,6 hPa 0,0 l/m 16,9 km/h N 10,3 C 10,3 C 35,4 km/h
01.02.2016 14:00 14,6 C 75 % 1017,5 hPa 0,0 l/m 16,0 km/h N 10,1 C 10,4 C 34,2 km/h
01.02.2016 15:00 14,1 C 75 % 1018,0 hPa 0,0 l/m 17,2 km/h N 9,7 C 9,4 C 35,8 km/h
01.02.2016 16:00 14,3 C 70 % 1018,5 hPa 0,0 l/m 14,6 km/h N 8,9 C 10,6 C 35,4 km/h
01.02.2016 17:00 14,4 C 66 % 1019,0 hPa 0,0 l/m 12,9 km/h N 8,2 C 11,3 C 33,0 km/h
01.02.2016 18:00 14,2 C 66 % 1019,1 hPa 0,0 l/m 8,6 km/h N 7,9 C 12,9 C 21,7 km/h
01.02.2016 19:00 14,1 C 64 % 1019,0 hPa 0,0 l/m 7,5 km/h N 7,5 C 13,4 C 20,5 km/h
01.02.2016 20:00 14,2 C 63 % 1018,7 hPa 0,0 l/m 7,1 km/h N 7,2 C 13,8 C 22,9 km/h
01.02.2016 21:00 14,0 C 63 % 1019,1 hPa 0,0 l/m 3,9 km/h N 7,2 C 14,0 C 16,5 km/h
01.02.2016 22:00 13,9 C 65 % 1019,8 hPa 0,0 l/m 8,3 km/h N 7,5 C 12,8 C 23,7 km/h
01.02.2016 23:00 13,7 C 63 % 1020,5 hPa 0,0 l/m 10,0 km/h N 6,8 C 11,7 C 24,1 km/h
02.02.2016 00:00 13,4 C 64 % 1020,9 hPa 0,0 l/m 11,5 km/h N 6,7 C 10,7 C 26,5 km/h
02.02.2016 01:00 12,9 C 65 % 1020,8 hPa 0,0 l/m 11,5 km/h N 6,3 C 10,1 C 27,4 km/h
02.02.2016 02:00 12,3 C 67 % 1020,9 hPa 0,0 l/m 8,8 km/h N 6,2 C 10,8 C 20,9 km/h
02.02.2016 03:00 12,2 C 66 % 1020,3 hPa 0,0 l/m 10,9 km/h N 6,0 C 9,6 C 28,1 km/h
02.02.2016 04:00 12,1 C 67 % 1020,0 hPa 0,0 l/m 11,3 km/h N 6,1 C 9,3 C 24,6 km/h
02.02.2016 05:00 11,9 C 66 % 1019,7 hPa 0,0 l/m 9,8 km/h N 5,7 C 9,9 C 26,9 km/h
02.02.2016 06:00 12,0 C 64 % 1019,8 hPa 0,0 l/m 4,4 km/h N 5,3 C 11,9 C 15,7 km/h
02.02.2016 07:00 11,8 C 64 % 1020,5 hPa 0,0 l/m 5,9 km/h N 5,2 C 11,1 C 16,9 km/h
02.02.2016 08:00 11,9 C 63 % 1020,5 hPa 0,0 l/m 7,0 km/h N 5,1 C 11,2 C 18,9 km/h
02.02.2016 09:00 11,9 C 64 % 1020,6 hPa 0,0 l/m 3,8 km/h N 5,3 C 11,6 C 15,7 km/h
02.02.2016 10:00 11,6 C 66 % 1020,7 hPa 0,0 l/m 0,3 km/h N 5,6 C 11,6 C 3,2 km/h
02.02.2016 11:00 11,8 C 68 % 1020,2 hPa 0,0 l/m 0,3 km/h N 6,0 C 11,8 C 2,4 km/h
02.02.2016 12:00 12,0 C 66 % 1019,3 hPa 0,0 l/m 0,6 km/h N 5,9 C 12,0 C 2,8 km/h
02.02.2016 13:00 11,7 C 69 % 1018,4 hPa 0,0 l/m 0,4 km/h N 6,2 C 11,7 C 4,0 km/h
02.02.2016 14:00 11,9 C 67 % 1017,8 hPa 0,0 l/m 0,1 km/h N 6,0 C 11,9 C 1,6 km/h
02.02.2016 15:00 11,5 C 72 % 1017,4 hPa 0,0 l/m 0,0 km/h N 6,6 C 11,5 C 0,0 km/h
02.02.2016 16:00 10,4 C 74 % 1016,9 hPa 0,0 l/m 0,0 km/h N 5,9 C 10,4 C 0,0 km/h
02.02.2016 17:00 8,6 C 77 % 1016,3 hPa 0,0 l/m 0,0 km/h N 4,7 C 8,6 C 0,0 km/h
02.02.2016 18:00 6,7 C 80 % 1016,2 hPa 0,0 l/m 0,0 km/h N 3,4 C 6,7 C 0,0 km/h
02.02.2016 19:00 5,1 C 82 % 1015,6 hPa 0,0 l/m 0,1 km/h N 2,3 C 5,1 C 1,2 km/h
02.02.2016 20:00 5,3 C 83 % 1015,6 hPa 0,0 l/m 0,8 km/h N 2,7 C 5,3 C 4,0 km/h
02.02.2016 21:00 5,5 C 83 % 1015,8 hPa 0,0 l/m 0,0 km/h N 2,9 C 5,5 C 1,2 km/h
02.02.2016 22:00 4,7 C 83 % 1015,4 hPa 0,0 l/m 0,8 km/h N 2,1 C 4,7 C 6,8 km/h
02.02.2016 23:00 11,2 C 68 % 1014,8 hPa 0,0 l/m 10,0 km/h N 5,5 C 9,1 C 25,0 km/h
03.02.2016 00:00 12,1 C 61 % 1014,7 hPa 0,0 l/m 12,6 km/h N 4,8 C 8,6 C 28,6 km/h
03.02.2016 01:00 11,9 C 61 % 1014,9 hPa 0,0 l/m 14,0 km/h N 4,6 C 7,9 C 31,0 km/h
03.02.2016 02:00 11,7 C 62 % 1015,1 hPa 0,0 l/m 11,1 km/h N 4,6 C 9,1 C 27,7 km/h
03.02.2016 03:00 11,9 C 61 % 1014,6 hPa 0,0 l/m 9,3 km/h N 4,6 C 10,2 C 27,8 km/h
03.02.2016 04:00 12,4 C 58 % 1014,6 hPa 0,0 l/m 13,0 km/h N 4,5 C 8,9 C 31,8 km/h
03.02.2016 05:00 12,0 C 60 % 1015,2 hPa 0,0 l/m 7,2 km/h N 4,4 C 11,3 C 21,7 km/h
03.02.2016 06:00 11,7 C 61 % 1015,5 hPa 0,0 l/m 10,1 km/h N 4,5 C 9,4 C 23,3 km/h
03.02.2016 07:00 11,5 C 63 % 1015,5 hPa 0,0 l/m 12,1 km/h N 4,6 C 8,2 C 30,1 km/h
03.02.2016 08:00 11,1 C 65 % 1015,7 hPa 0,0 l/m 4,5 km/h N 4,7 C 10,7 C 16,9 km/h
03.02.2016 09:00 10,7 C 65 % 1015,8 hPa 0,0 l/m 1,5 km/h N 4,3 C 10,7 C 10,5 km/h
03.02.2016 10:00 10,4 C 63 % 1015,2 hPa 0,0 l/m 2,7 km/h N 3,6 C 10,4 C 12,5 km/h
03.02.2016 11:00 9,8 C 67 % 1014,7 hPa 0,3 l/m 1,4 km/h N 4,1 C 9,8 C 8,1 km/h
03.02.2016 12:00 7,2 C 79 % 1015,1 hPa 2,3 l/m 8,1 km/h N 3,8 C 5,0 C 16,9 km/h
03.02.2016 13:00 5,0 C 82 % 1015,1 hPa 2,1 l/m 9,8 km/h N 2,2 C 2,2 C 19,3 km/h
03.02.2016 14:00 4,0 C 83 % 1015,2 hPa 1,8 l/m 7,2 km/h N 1,4 C 3,2 C 15,3 km/h
03.02.2016 15:00 3,2 C 84 % 1015,8 hPa 1,8 l/m 7,9 km/h N 0,7 C 1,8 C 18,9 km/h
03.02.2016 16:00 2,6 C 84 % 1015,9 hPa 1,0 l/m 5,3 km/h N 0,2 C 2,5 C 12,5 km/h
03.02.2016 17:00 2,7 C 84 % 1015,8 hPa 0,0 l/m 3,5 km/h N 0,2 C 2,7 C 10,1 km/h
03.02.2016 18:00 3,4 C 84 % 1015,8 hPa 0,0 l/m 3,0 km/h N 0,9 C 3,4 C 10,5 km/h
03.02.2016 19:00 4,0 C 83 % 1015,8 hPa 0,0 l/m 5,8 km/h N 1,4 C 3,3 C 16,5 km/h
03.02.2016 20:00 4,5 C 81 % 1016,3 hPa 0,0 l/m 9,2 km/h N 1,5 C 2,2 C 22,5 km/h
03.02.2016 21:00 4,7 C 80 % 1016,8 hPa 0,0 l/m 10,3 km/h N 1,5 C 1,5 C 24,9 km/h
03.02.2016 22:00 4,7 C 80 % 1016,9 hPa 0,0 l/m 12,6 km/h N 1,6 C 0,1 C 24,9 km/h
03.02.2016 23:00 4,9 C 79 % 1017,8 hPa 0,3 l/m 11,8 km/h N 1,5 C 0,8 C 29,0 km/h
04.02.2016 00:00 4,9 C 78 % 1018,6 hPa 0,0 l/m 13,9 km/h N 1,4 C -0,4 C 33,0 km/h
04.02.2016 01:00 4,9 C 77 % 1019,4 hPa 0,0 l/m 10,9 km/h N 1,3 C 1,4 C 27,8 km/h
04.02.2016 02:00 3,8 C 78 % 1020,5 hPa 0,0 l/m 13,4 km/h N 0,3 C -1,4 C 34,6 km/h
04.02.2016 03:00 3,2 C 78 % 1020,5 hPa 0,0 l/m 16,6 km/h N -0,3 C -4,0 C 33,4 km/h
04.02.2016 04:00 3,2 C 74 % 1021,0 hPa 0,0 l/m 14,5 km/h N -0,9 C -2,8 C 31,8 km/h
04.02.2016 05:00 3,2 C 74 % 1021,4 hPa 0,0 l/m 13,9 km/h N -1,0 C -2,4 C 33,4 km/h
04.02.2016 06:00 3,3 C 72 % 1021,8 hPa 0,0 l/m 16,0 km/h N -1,3 C -3,5 C 33,0 km/h
04.02.2016 07:00 3,1 C 71 % 1021,9 hPa 0,0 l/m 15,3 km/h N -1,7 C -3,4 C 35,8 km/h
04.02.2016 08:00 3,5 C 69 % 1021,7 hPa 0,0 l/m 13,7 km/h N -1,7 C -1,9 C 30,6 km/h
04.02.2016 09:00 4,4 C 68 % 1021,8 hPa 0,0 l/m 15,1 km/h N -1,1 C -1,5 C 34,6 km/h
04.02.2016 10:00 5,0 C 66 % 1022,1 hPa 0,0 l/m 13,1 km/h N -0,9 C 0,3 C 30,6 km/h
04.02.2016 11:00 5,5 C 65 % 1021,8 hPa 0,0 l/m 19,1 km/h N -0,7 C -2,1 C 38,6 km/h
04.02.2016 12:00 5,5 C 66 % 1021,8 hPa 0,0 l/m 23,4 km/h N -0,4 C -3,7 C 44,7 km/h
04.02.2016 13:00 5,8 C 63 % 1021,8 hPa 0,0 l/m 16,0 km/h N -0,7 C -0,4 C 29,8 km/h
04.02.2016 14:00 5,7 C 63 % 1021,2 hPa 0,0 l/m 12,9 km/h N -0,8 C 1,0 C 28,6 km/h
04.02.2016 15:00 5,2 C 67 % 1021,1 hPa 0,0 l/m 13,3 km/h N -0,4 C 0,3 C 29,0 km/h
04.02.2016 16:00 4,8 C 66 % 1021,1 hPa 0,0 l/m 8,3 km/h N -1,0 C 2,9 C 21,3 km/h
04.02.2016 17:00 4,4 C 66 % 1020,9 hPa 0,0 l/m 8,8 km/h N -1,3 C 2,5 C 22,1 km/h
04.02.2016 18:00 4,2 C 69 % 1020,8 hPa 0,0 l/m 7,7 km/h N -1,1 C 2,9 C 21,7 km/h
04.02.2016 19:00 4,0 C 70 % 1020,9 hPa 0,0 l/m 7,3 km/h N -0,9 C 2,9 C 21,7 km/h
04.02.2016 20:00 3,8 C 73 % 1020,4 hPa 0,0 l/m 6,9 km/h N -0,6 C 2,7 C 20,1 km/h
04.02.2016 21:00 3,9 C 72 % 1020,0 hPa 0,0 l/m 4,8 km/h N -0,7 C 3,8 C 11,7 km/h
04.02.2016 22:00 4,1 C 71 % 1019,7 hPa 0,0 l/m 3,0 km/h N -0,7 C 4,1 C 12,1 km/h
04.02.2016 23:00 4,3 C 73 % 1019,9 hPa 0,0 l/m 2,4 km/h N -0,1 C 4,3 C 11,7 km/h
05.02.2016 00:00 3,7 C 78 % 1020,1 hPa 0,3 l/m 0,1 km/h N 0,2 C 3,7 C 2,8 km/h
05.02.2016 01:00 3,1 C 81 % 1020,5 hPa 0,0 l/m 0,0 km/h N 0,2 C 3,1 C 0,8 km/h
05.02.2016 02:00 3,4 C 81 % 1020,9 hPa 0,0 l/m 6,1 km/h N 0,4 C 2,2 C 17,7 km/h
05.02.2016 03:00 3,6 C 80 % 1021,4 hPa 0,3 l/m 12,0 km/h N 0,4 C -0,8 C 22,9 km/h
05.02.2016 04:00 3,4 C 80 % 1022,2 hPa 0,0 l/m 8,7 km/h N 0,2 C 1,5 C 22,5 km/h
05.02.2016 05:00 3,3 C 81 % 1023,3 hPa 0,3 l/m 9,0 km/h N 0,3 C 1,0 C 19,7 km/h
05.02.2016 06:00 3,4 C 80 % 1024,5 hPa 0,3 l/m 7,9 km/h N 0,3 C 2,0 C 20,9 km/h
05.02.2016 07:00 3,5 C 80 % 1025,8 hPa 0,0 l/m 7,3 km/h N 0,4 C 2,6 C 16,5 km/h
05.02.2016 08:00 3,0 C 80 % 1027,1 hPa 0,3 l/m 7,3 km/h N -0,2 C 2,2 C 18,5 km/h
05.02.2016 09:00 2,8 C 81 % 1027,8 hPa 0,5 l/m 3,0 km/h N -0,1 C 2,8 C 7,6 km/h
05.02.2016 10:00 3,6 C 81 % 1028,2 hPa 0,3 l/m 5,8 km/h N 0,7 C 3,2 C 12,5 km/h
05.02.2016 11:00 4,4 C 77 % 1028,2 hPa 0,0 l/m 7,2 km/h N 0,7 C 3,6 C 15,7 km/h
05.02.2016 12:00 5,1 C 72 % 1027,6 hPa 0,0 l/m 6,0 km/h N 0,4 C 5,1 C 11,7 km/h
05.02.2016 13:00 5,6 C 64 % 1027,3 hPa 0,0 l/m 5,4 km/h N -0,6 C 5,5 C 13,7 km/h
05.02.2016 14:00 5,9 C 62 % 1026,9 hPa 0,0 l/m 3,3 km/h N -0,8 C 5,9 C 9,3 km/h
05.02.2016 15:00 6,3 C 60 % 1027,0 hPa 0,0 l/m 2,3 km/h N -0,8 C 6,3 C 8,8 km/h
05.02.2016 16:00 5,8 C 63 % 1027,1 hPa 0,0 l/m 5,0 km/h N -0,8 C 5,7 C 13,7 km/h
05.02.2016 17:00 4,8 C 68 % 1027,4 hPa 0,0 l/m 5,6 km/h N -0,6 C 4,7 C 16,9 km/h
05.02.2016 18:00 4,5 C 70 % 1027,6 hPa 0,0 l/m 3,0 km/h N -0,4 C 4,5 C 15,3 km/h
05.02.2016 19:00 4,1 C 72 % 1027,7 hPa 0,0 l/m 0,8 km/h N -0,6 C 4,1 C 4,0 km/h
05.02.2016 20:00 2,8 C 75 % 1028,0 hPa 0,0 l/m 0,0 km/h N -1,3 C 2,8 C 0,0 km/h
05.02.2016 21:00 2,8 C 79 % 1027,6 hPa 0,0 l/m 0,2 km/h N -0,4 C 2,8 C 2,0 km/h
05.02.2016 22:00 3,6 C 79 % 1027,4 hPa 0,0 l/m 0,0 km/h N 0,2 C 3,6 C 2,4 km/h
05.02.2016 23:00 3,9 C 78 % 1027,1 hPa 0,0 l/m 0,0 km/h N 0,4 C 3,9 C 0,0 km/h
06.02.2016 00:00 3,7 C 80 % 1026,8 hPa 0,0 l/m 0,0 km/h N 0,6 C 3,7 C 0,0 km/h
06.02.2016 01:00 3,5 C 81 % 1026,3 hPa 0,0 l/m 0,0 km/h N 0,6 C 3,5 C 0,4 km/h
06.02.2016 02:00 2,8 C 81 % 1025,8 hPa 0,0 l/m 0,0 km/h N -0,1 C 2,8 C 0,0 km/h
06.02.2016 03:00 1,1 C 81 % 1025,5 hPa 0,0 l/m 0,1 km/h N -1,8 C 1,1 C 0,4 km/h
06.02.2016 04:00 -0,3 C 82 % 1025,4 hPa 0,0 l/m 0,1 km/h N -2,9 C -0,3 C 1,2 km/h
06.02.2016 05:00 -0,8 C 83 % 1025,4 hPa 0,0 l/m 0,0 km/h N -3,3 C -0,8 C 0,0 km/h
06.02.2016 06:00 -1,3 C 84 % 1025,2 hPa 0,0 l/m 0,1 km/h N -3,7 C -1,3 C 0,4 km/h
06.02.2016 07:00 -1,7 C 84 % 1025,5 hPa 0,0 l/m 0,0 km/h N -4,0 C -1,7 C 0,0 km/h
06.02.2016 08:00 -1,3 C 84 % 1025,6 hPa 0,0 l/m 0,0 km/h N -3,6 C -1,3 C 0,0 km/h
06.02.2016 09:00 1,2 C 83 % 1025,2 hPa 0,0 l/m 0,2 km/h N -1,4 C 1,2 C 2,0 km/h
06.02.2016 10:00 4,4 C 83 % 1024,4 hPa 0,0 l/m 0,4 km/h N 1,8 C 4,4 C 4,4 km/h
06.02.2016 11:00 7,0 C 75 % 1023,7 hPa 0,0 l/m 0,5 km/h N 2,8 C 7,0 C 3,6 km/h
06.02.2016 12:00 9,0 C 67 % 1022,8 hPa 0,0 l/m 0,7 km/h N 3,1 C 9,0 C 5,6 km/h
06.02.2016 13:00 10,0 C 65 % 1021,9 hPa 0,0 l/m 0,3 km/h N 3,7 C 10,0 C 4,8 km/h
06.02.2016 14:00 10,5 C 62 % 1021,4 hPa 0,0 l/m 1,6 km/h N 3,4 C 10,5 C 7,6 km/h
06.02.2016 15:00 9,8 C 62 % 1021,1 hPa 0,0 l/m 1,3 km/h N 2,9 C 9,8 C 6,8 km/h
06.02.2016 16:00 8,6 C 66 % 1020,7 hPa 0,0 l/m 0,2 km/h N 2,7 C 8,6 C 3,2 km/h
06.02.2016 17:00 7,3 C 69 % 1020,4 hPa 0,0 l/m 0,0 km/h N 2,0 C 7,3 C 0,4 km/h
06.02.2016 18:00 5,1 C 74 % 1020,0 hPa 0,0 l/m 0,1 km/h N 0,8 C 5,1 C 1,2 km/h
06.02.2016 19:00 4,6 C 79 % 1019,6 hPa 0,0 l/m 0,0 km/h N 1,2 C 4,6 C 0,4 km/h
06.02.2016 20:00 2,9 C 80 % 1018,9 hPa 0,0 l/m 0,1 km/h N -0,3 C 2,9 C 1,6 km/h
06.02.2016 21:00 3,2 C 83 % 1018,1 hPa 0,0 l/m 0,1 km/h N 0,5 C 3,2 C 1,6 km/h
06.02.2016 22:00 2,8 C 83 % 1017,3 hPa 0,0 l/m 0,4 km/h N 0,2 C 2,8 C 4,8 km/h
06.02.2016 23:00 3,2 C 84 % 1016,3 hPa 0,0 l/m 0,4 km/h N 0,8 C 3,2 C 4,4 km/h
07.02.2016 00:00 3,4 C 83 % 1015,4 hPa 0,0 l/m 1,5 km/h N 0,8 C 3,4 C 6,8 km/h
07.02.2016 01:00 3,3 C 82 % 1014,5 hPa 0,0 l/m 1,4 km/h N 0,6 C 3,3 C 8,0 km/h
07.02.2016 02:00 3,0 C 83 % 1013,6 hPa 0,0 l/m 0,9 km/h N 0,4 C 3,0 C 7,6 km/h
07.02.2016 03:00 2,9 C 83 % 1012,8 hPa 0,0 l/m 0,5 km/h N 0,3 C 2,9 C 6,0 km/h
07.02.2016 04:00 2,3 C 83 % 1012,0 hPa 0,0 l/m 0,1 km/h N -0,2 C 2,3 C 2,4 km/h
07.02.2016 05:00 1,5 C 84 % 1011,1 hPa 0,0 l/m 0,0 km/h N -0,9 C 1,5 C 0,0 km/h
07.02.2016 06:00 0,3 C 84 % 1010,7 hPa 0,0 l/m 0,1 km/h N -2,1 C 0,3 C 0,4 km/h
07.02.2016 07:00 -0,1 C 84 % 1010,8 hPa 0,0 l/m 0,4 km/h N -2,4 C -0,1 C 2,4 km/h
07.02.2016 08:00 1,0 C 84 % 1010,8 hPa 0,0 l/m 1,7 km/h N -1,5 C 1,0 C 5,2 km/h
07.02.2016 09:00 3,5 C 83 % 1010,4 hPa 0,0 l/m 3,8 km/h N 0,9 C 3,5 C 7,6 km/h
07.02.2016 10:00 6,1 C 80 % 1010,2 hPa 0,0 l/m 3,1 km/h N 2,8 C 6,1 C 7,2 km/h
07.02.2016 11:00 8,2 C 70 % 1009,7 hPa 0,0 l/m 1,8 km/h N 3,0 C 8,2 C 6,0 km/h
07.02.2016 12:00 10,3 C 62 % 1008,8 hPa 0,0 l/m 0,3 km/h N 3,3 C 10,3 C 3,2 km/h
07.02.2016 13:00 12,3 C 55 % 1008,0 hPa 0,0 l/m 0,4 km/h N 3,4 C 12,3 C 3,6 km/h
07.02.2016 14:00 13,3 C 52 % 1007,5 hPa 0,0 l/m 0,3 km/h N 3,5 C 13,3 C 3,2 km/h
07.02.2016 15:00 13,4 C 52 % 1007,0 hPa 0,0 l/m 0,1 km/h N 3,8 C 13,4 C 1,2 km/h
07.02.2016 16:00 12,3 C 56 % 1007,0 hPa 0,0 l/m 1,1 km/h N 3,7 C 12,3 C 3,2 km/h
07.02.2016 17:00 10,9 C 60 % 1007,3 hPa 0,0 l/m 1,8 km/h N 3,4 C 10,9 C 7,6 km/h
07.02.2016 18:00 10,0 C 62 % 1007,7 hPa 0,0 l/m 1,1 km/h N 3,1 C 10,0 C 10,5 km/h
07.02.2016 19:00 9,5 C 64 % 1008,0 hPa 0,0 l/m 0,8 km/h N 3,0 C 9,5 C 6,8 km/h
07.02.2016 20:00 9,1 C 66 % 1008,2 hPa 0,0 l/m 0,1 km/h N 3,1 C 9,1 C 2,4 km/h
07.02.2016 21:00 7,8 C 69 % 1008,5 hPa 0,0 l/m 0,0 km/h N 2,5 C 7,8 C 0,0 km/h
07.02.2016 22:00 6,4 C 75 % 1009,1 hPa 0,0 l/m 0,0 km/h N 2,3 C 6,4 C 0,0 km/h
07.02.2016 23:00 5,7 C 78 % 1010,3 hPa 0,0 l/m 0,9 km/h N 2,1 C 5,7 C 4,8 km/h
Min-Datum _ 06.02.16 07.02.16 07.02.16 - 01.02.16 - 06.02.16 04.02.16 01.02.16
_ Min-Zeit 07:30 14:45 15:45 - 00:01 - 07:30 07:30 00:01
Minimum _ -1,7 C 50 % 1006,9 hPa - 0,0 km/h - -4,0 C -4,7 C 0,0 km/h
Max-Datum _ 01.02.16 01.02.16 05.02.16 01.02.16 04.02.16 - 01.02.16 01.02.16 01.02.16
_ Max-Zeit 12:15 00:31 11:15 02:01 12:15 - 12:01 20:45 16:00
Maximum _ 15,4 C 84 % 1028,3 hPa 3,1 l/m 25,1 km/h
N
- 10,5 C 14,2 C 49,9 km/h
N
Durchschnitt _ 6,9 C 73 % 1018,5 hPa #22,1 l/m 5,5 km/h N 2,3 C 5,6 C 14,2 km/h